TUX09 DTTJ-DTTA
Flight info
| Callsign | TUX09 |
|---|---|
| Flight time | 0h 37m |
| Altitude | 22000 |
| Route | BISKO1A BISKO A411 TUC |
| Aircraft | A320/M-SDE3FGHIRWY/LB1 |
Departure
| Time | 2026-04-24 15:19 |
|---|---|
| Airport | Djerba Zarzis International Airport (DTTJ) |
Arrival
| Time | 2026-04-24 15:56 |
|---|---|
| Airport | Tunis Carthage International Airport (DTTA) |
| Time | Latitude | Longitude | Altitude | Speed | Heading |
|---|---|---|---|---|---|
| 2026-04-24 14:56 | 33.87304 | 10.77453 | 27 ft | 0 kts | 208° |
| 2026-04-24 15:10 | 33.87305 | 10.77454 | 27 ft | 2 kts | 208° |
| 2026-04-24 15:10 | 33.87328 | 10.77469 | 27 ft | 4 kts | 209° |
| 2026-04-24 15:11 | 33.87351 | 10.77485 | 27 ft | 4 kts | 216° |
| 2026-04-24 15:11 | 33.87371 | 10.77506 | 26 ft | 4 kts | 232° |
| 2026-04-24 15:11 | 33.87382 | 10.77533 | 26 ft | 2 kts | 265° |
| 2026-04-24 15:11 | 33.87382 | 10.77535 | 26 ft | 0 kts | 266° |
| 2026-04-24 15:14 | 33.87382 | 10.77525 | 26 ft | 4 kts | 267° |
| 2026-04-24 15:14 | 33.87380 | 10.77472 | 26 ft | 9 kts | 268° |
| 2026-04-24 15:14 | 33.87378 | 10.77374 | 27 ft | 14 kts | 268° |
| 2026-04-24 15:14 | 33.87368 | 10.77267 | 27 ft | 12 kts | 262° |
| 2026-04-24 15:15 | 33.87365 | 10.77170 | 27 ft | 12 kts | 268° |
| 2026-04-24 15:15 | 33.87361 | 10.77037 | 27 ft | 14 kts | 269° |
| 2026-04-24 15:15 | 33.87359 | 10.76926 | 30 ft | 13 kts | 268° |
| 2026-04-24 15:15 | 33.87355 | 10.76813 | 24 ft | 14 kts | 267° |
| 2026-04-24 15:16 | 33.87351 | 10.76693 | 21 ft | 15 kts | 268° |
| 2026-04-24 15:16 | 33.87348 | 10.76573 | 20 ft | 14 kts | 269° |
| 2026-04-24 15:16 | 33.87347 | 10.76468 | 21 ft | 13 kts | 269° |
| 2026-04-24 15:16 | 33.87341 | 10.76337 | 20 ft | 19 kts | 268° |
| 2026-04-24 15:17 | 33.87338 | 10.76167 | 16 ft | 21 kts | 270° |
| 2026-04-24 15:17 | 33.87397 | 10.76057 | 18 ft | 16 kts | 350° |
| 2026-04-24 15:17 | 33.87491 | 10.76059 | 22 ft | 9 kts | 5° |
| 2026-04-24 15:17 | 33.87504 | 10.76108 | 22 ft | 2 kts | 89° |
| 2026-04-24 15:18 | 33.87505 | 10.76108 | 22 ft | 1 kts | 89° |
| 2026-04-24 15:18 | 33.87512 | 10.76408 | 20 ft | 72 kts | 88° |
| 2026-04-24 15:18 | 33.87533 | 10.77253 | 23 ft | 129 kts | 88° |
| 2026-04-24 15:18 | 33.87563 | 10.78496 | 222 ft | 153 kts | 86° |
| 2026-04-24 15:19 | 33.87655 | 10.79757 | 873 ft | 152 kts | 71° |
| 2026-04-24 15:19 | 33.88299 | 10.80758 | 1459 ft | 159 kts | 29° |
| 2026-04-24 15:19 | 33.89382 | 10.81042 | 2080 ft | 166 kts | 356° |
| 2026-04-24 15:19 | 33.90456 | 10.80497 | 2659 ft | 172 kts | 328° |
| 2026-04-24 15:20 | 33.91442 | 10.79690 | 3224 ft | 174 kts | 335° |
| 2026-04-24 15:20 | 33.92651 | 10.79309 | 3531 ft | 189 kts | 357° |
| 2026-04-24 15:20 | 33.94045 | 10.79155 | 3757 ft | 212 kts | 356° |
| 2026-04-24 15:20 | 33.95596 | 10.78948 | 4056 ft | 237 kts | 354° |
| 2026-04-24 15:21 | 33.97302 | 10.78710 | 4595 ft | 253 kts | 354° |
| 2026-04-24 15:21 | 33.99048 | 10.78464 | 5394 ft | 258 kts | 353° |
| 2026-04-24 15:21 | 34.00839 | 10.78213 | 6269 ft | 261 kts | 353° |
| 2026-04-24 15:21 | 34.02652 | 10.77962 | 7066 ft | 264 kts | 353° |
| 2026-04-24 15:22 | 34.04486 | 10.77708 | 7899 ft | 266 kts | 352° |
| 2026-04-24 15:22 | 34.06328 | 10.77453 | 8762 ft | 267 kts | 352° |
| 2026-04-24 15:22 | 34.08184 | 10.77200 | 9613 ft | 269 kts | 352° |
| 2026-04-24 15:23 | 34.12017 | 10.76679 | 10649 ft | 296 kts | 352° |
| 2026-04-24 15:23 | 34.16347 | 10.76093 | 11492 ft | 323 kts | 352° |
| 2026-04-24 15:23 | 34.18593 | 10.75790 | 12161 ft | 328 kts | 352° |
| 2026-04-24 15:24 | 34.25531 | 10.74848 | 14129 ft | 341 kts | 352° |
| 2026-04-24 15:25 | 34.30297 | 10.74203 | 15336 ft | 348 kts | 352° |
| 2026-04-24 15:25 | 34.35155 | 10.73552 | 16542 ft | 354 kts | 352° |
| 2026-04-24 15:26 | 34.42586 | 10.72535 | 18351 ft | 363 kts | 352° |
| 2026-04-24 15:27 | 34.50178 | 10.71586 | 20021 ft | 368 kts | 353° |
| 2026-04-24 15:27 | 34.57847 | 10.70942 | 21737 ft | 372 kts | 353° |
| 2026-04-24 15:28 | 34.68037 | 10.70045 | 22084 ft | 363 kts | 353° |
| 2026-04-24 15:29 | 34.73065 | 10.69587 | 22084 ft | 362 kts | 353° |
| 2026-04-24 15:30 | 34.80614 | 10.68894 | 22081 ft | 363 kts | 353° |
| 2026-04-24 15:31 | 34.90688 | 10.67984 | 22088 ft | 363 kts | 353° |
| 2026-04-24 15:32 | 35.00762 | 10.67058 | 22092 ft | 363 kts | 353° |
| 2026-04-24 15:33 | 35.10835 | 10.66135 | 22079 ft | 365 kts | 353° |
| 2026-04-24 15:33 | 35.18463 | 10.65436 | 22083 ft | 367 kts | 353° |
| 2026-04-24 15:34 | 35.23558 | 10.64974 | 22089 ft | 367 kts | 353° |
| 2026-04-24 15:35 | 35.31209 | 10.64269 | 22088 ft | 368 kts | 353° |
| 2026-04-24 15:35 | 35.36325 | 10.63798 | 22081 ft | 369 kts | 354° |
| 2026-04-24 15:35 | 35.38885 | 10.63565 | 22081 ft | 369 kts | 354° |
| 2026-04-24 15:36 | 35.41448 | 10.63329 | 22086 ft | 369 kts | 353° |
| 2026-04-24 15:36 | 35.46577 | 10.62850 | 22087 ft | 370 kts | 353° |
| 2026-04-24 15:36 | 35.49143 | 10.62612 | 22093 ft | 370 kts | 353° |
| 2026-04-24 15:37 | 35.51713 | 10.62375 | 22103 ft | 370 kts | 353° |
| 2026-04-24 15:37 | 35.54245 | 10.62139 | 22090 ft | 369 kts | 353° |
| 2026-04-24 15:37 | 35.56781 | 10.61904 | 21835 ft | 361 kts | 353° |
| 2026-04-24 15:37 | 35.59288 | 10.61674 | 21586 ft | 352 kts | 353° |
| 2026-04-24 15:38 | 35.61678 | 10.61454 | 21321 ft | 347 kts | 353° |
| 2026-04-24 15:38 | 35.64078 | 10.61231 | 21067 ft | 345 kts | 353° |
| 2026-04-24 15:38 | 35.66468 | 10.61009 | 20816 ft | 344 kts | 353° |
| 2026-04-24 15:38 | 35.68852 | 10.60785 | 20565 ft | 343 kts | 354° |
| 2026-04-24 15:39 | 35.71230 | 10.60563 | 20319 ft | 342 kts | 354° |
| 2026-04-24 15:39 | 35.73604 | 10.60345 | 20072 ft | 342 kts | 354° |
| 2026-04-24 15:39 | 35.75969 | 10.60126 | 19829 ft | 341 kts | 354° |
| 2026-04-24 15:39 | 35.78330 | 10.59905 | 19600 ft | 340 kts | 354° |
| 2026-04-24 15:40 | 35.80697 | 10.59683 | 19357 ft | 341 kts | 354° |
| 2026-04-24 15:40 | 35.83062 | 10.59461 | 19119 ft | 341 kts | 354° |
| 2026-04-24 15:40 | 35.85423 | 10.59238 | 18883 ft | 340 kts | 354° |
| 2026-04-24 15:40 | 35.87780 | 10.59018 | 18647 ft | 339 kts | 354° |
| 2026-04-24 15:41 | 35.90131 | 10.58800 | 18413 ft | 338 kts | 354° |
| 2026-04-24 15:41 | 35.92439 | 10.58585 | 18154 ft | 337 kts | 354° |
| 2026-04-24 15:41 | 35.94774 | 10.58412 | 17888 ft | 336 kts | 355° |
| 2026-04-24 15:41 | 35.97086 | 10.58120 | 17558 ft | 332 kts | 345° |
| 2026-04-24 15:42 | 35.99216 | 10.57087 | 17136 ft | 328 kts | 333° |
| 2026-04-24 15:42 | 36.01260 | 10.55857 | 16743 ft | 325 kts | 333° |
| 2026-04-24 15:42 | 36.03285 | 10.54630 | 16348 ft | 323 kts | 333° |
| 2026-04-24 15:42 | 36.05298 | 10.53404 | 15958 ft | 322 kts | 333° |
| 2026-04-24 15:43 | 36.07311 | 10.52177 | 15469 ft | 323 kts | 333° |
| 2026-04-24 15:43 | 36.09323 | 10.50954 | 15073 ft | 322 kts | 333° |
| 2026-04-24 15:43 | 36.11328 | 10.49737 | 14681 ft | 320 kts | 334° |
| 2026-04-24 15:43 | 36.13326 | 10.48525 | 14295 ft | 319 kts | 334° |
| 2026-04-24 15:44 | 36.15315 | 10.47318 | 13890 ft | 318 kts | 334° |
| 2026-04-24 15:44 | 36.17296 | 10.46116 | 13466 ft | 316 kts | 334° |
| 2026-04-24 15:44 | 36.19263 | 10.44920 | 13070 ft | 313 kts | 334° |
| 2026-04-24 15:44 | 36.21211 | 10.43735 | 12673 ft | 311 kts | 334° |
| 2026-04-24 15:45 | 36.23148 | 10.42558 | 12285 ft | 309 kts | 334° |
| 2026-04-24 15:45 | 36.25042 | 10.41406 | 11899 ft | 307 kts | 334° |
| 2026-04-24 15:45 | 36.26951 | 10.40243 | 11503 ft | 305 kts | 334° |
| 2026-04-24 15:45 | 36.28844 | 10.39088 | 11110 ft | 302 kts | 333° |
| 2026-04-24 15:46 | 36.30728 | 10.37935 | 10710 ft | 301 kts | 333° |
| 2026-04-24 15:46 | 36.32598 | 10.36790 | 10319 ft | 299 kts | 333° |
| 2026-04-24 15:46 | 36.34447 | 10.35658 | 10128 ft | 291 kts | 333° |
| 2026-04-24 15:46 | 36.36231 | 10.34566 | 9934 ft | 282 kts | 334° |
| 2026-04-24 15:47 | 36.37978 | 10.33499 | 9600 ft | 279 kts | 334° |
| 2026-04-24 15:47 | 36.39726 | 10.32432 | 9186 ft | 278 kts | 334° |
| 2026-04-24 15:47 | 36.41461 | 10.31370 | 8656 ft | 281 kts | 333° |
| 2026-04-24 15:47 | 36.43194 | 10.30307 | 8149 ft | 277 kts | 333° |
| 2026-04-24 15:48 | 36.44907 | 10.29259 | 7705 ft | 272 kts | 334° |
| 2026-04-24 15:48 | 36.46611 | 10.28217 | 7053 ft | 275 kts | 333° |
| 2026-04-24 15:48 | 36.48310 | 10.27176 | 6486 ft | 269 kts | 333° |
| 2026-04-24 15:48 | 36.49963 | 10.26161 | 5953 ft | 261 kts | 334° |
| 2026-04-24 15:49 | 36.51559 | 10.25180 | 5459 ft | 251 kts | 334° |
| 2026-04-24 15:49 | 36.53107 | 10.24227 | 4996 ft | 245 kts | 334° |
| 2026-04-24 15:49 | 36.54613 | 10.23299 | 4531 ft | 239 kts | 335° |
| 2026-04-24 15:49 | 36.56057 | 10.22410 | 4413 ft | 226 kts | 334° |
| 2026-04-24 15:50 | 36.57429 | 10.21564 | 4361 ft | 214 kts | 335° |
| 2026-04-24 15:50 | 36.58734 | 10.20761 | 4297 ft | 207 kts | 335° |
| 2026-04-24 15:50 | 36.60022 | 10.19969 | 4214 ft | 207 kts | 335° |
| 2026-04-24 15:50 | 36.61318 | 10.19172 | 4126 ft | 209 kts | 335° |
| 2026-04-24 15:51 | 36.62624 | 10.18369 | 4025 ft | 210 kts | 335° |
| 2026-04-24 15:51 | 36.63941 | 10.17595 | 3918 ft | 209 kts | 343° |
| 2026-04-24 15:51 | 36.65360 | 10.17370 | 3715 ft | 205 kts | 8° |
| 2026-04-24 15:51 | 36.66750 | 10.17708 | 3464 ft | 204 kts | 18° |
| 2026-04-24 15:52 | 36.68130 | 10.18087 | 3223 ft | 200 kts | 16° |
| 2026-04-24 15:52 | 36.69470 | 10.18452 | 2931 ft | 196 kts | 15° |
| 2026-04-24 15:52 | 36.70785 | 10.18809 | 2665 ft | 191 kts | 16° |
| 2026-04-24 15:52 | 36.72075 | 10.19159 | 2413 ft | 188 kts | 16° |
| 2026-04-24 15:53 | 36.73343 | 10.19503 | 2169 ft | 185 kts | 17° |
| 2026-04-24 15:53 | 36.74600 | 10.19844 | 1915 ft | 184 kts | 17° |
| 2026-04-24 15:53 | 36.75851 | 10.20184 | 1672 ft | 184 kts | 18° |
| 2026-04-24 15:53 | 36.77059 | 10.20511 | 1419 ft | 174 kts | 17° |
| 2026-04-24 15:54 | 36.78212 | 10.20824 | 1201 ft | 165 kts | 19° |
| 2026-04-24 15:54 | 36.79289 | 10.21115 | 979 ft | 152 kts | 18° |
| 2026-04-24 15:54 | 36.80284 | 10.21385 | 783 ft | 144 kts | 17° |
| 2026-04-24 15:54 | 36.81253 | 10.21648 | 596 ft | 141 kts | 16° |
| 2026-04-24 15:55 | 36.82200 | 10.21902 | 423 ft | 138 kts | 14° |
| 2026-04-24 15:55 | 36.83121 | 10.22155 | 238 ft | 137 kts | 15° |
| 2026-04-24 15:55 | 36.84036 | 10.22407 | 49 ft | 132 kts | 15° |
| 2026-04-24 15:55 | 36.84814 | 10.22622 | 32 ft | 90 kts | 13° |
| 2026-04-24 15:56 | 36.85262 | 10.22742 | 33 ft | 44 kts | 12° |
| 2026-04-24 15:56 | 36.85533 | 10.22817 | 31 ft | 35 kts | 13° |
| 2026-04-24 15:56 | 36.85662 | 10.22852 | 30 ft | 17 kts | 11° |
| 2026-04-24 15:56 | 36.85795 | 10.22887 | 30 ft | 22 kts | 12° |
| 2026-04-24 15:57 | 36.85944 | 10.22902 | 29 ft | 22 kts | 342° |
| 2026-04-24 15:57 | 36.86023 | 10.22751 | 30 ft | 22 kts | 267° |
| 2026-04-24 15:57 | 36.85969 | 10.22659 | 30 ft | 20 kts | 204° |
| 2026-04-24 15:57 | 36.85796 | 10.22610 | 30 ft | 18 kts | 192° |
| 2026-04-24 15:58 | 36.85680 | 10.22579 | 30 ft | 16 kts | 192° |
| 2026-04-24 15:58 | 36.85576 | 10.22551 | 30 ft | 15 kts | 192° |
| 2026-04-24 15:58 | 36.85479 | 10.22524 | 30 ft | 15 kts | 192° |
| 2026-04-24 15:58 | 36.85352 | 10.22490 | 31 ft | 22 kts | 192° |
| 2026-04-24 15:59 | 36.85217 | 10.22453 | 35 ft | 18 kts | 190° |
| 2026-04-24 15:59 | 36.85100 | 10.22423 | 33 ft | 18 kts | 193° |
| 2026-04-24 15:59 | 36.84981 | 10.22392 | 31 ft | 17 kts | 189° |
| 2026-04-24 15:59 | 36.84873 | 10.22348 | 30 ft | 15 kts | 231° |
| 2026-04-24 16:00 | 36.84884 | 10.22222 | 30 ft | 14 kts | 282° |
| 2026-04-24 16:00 | 36.84900 | 10.22107 | 30 ft | 13 kts | 274° |
| 2026-04-24 16:00 | 36.84850 | 10.22037 | 30 ft | 11 kts | 189° |
| 2026-04-24 16:00 | 36.84779 | 10.22029 | 30 ft | 10 kts | 191° |
| 2026-04-24 16:01 | 36.84732 | 10.21993 | 30 ft | 7 kts | 245° |
| 2026-04-24 16:01 | 36.84693 | 10.21971 | 30 ft | 6 kts | 197° |
| 2026-04-24 16:01 | 36.84664 | 10.21960 | 30 ft | 1 kts | 197° |
| 2026-04-24 16:01 | 36.84660 | 10.21959 | 30 ft | 0 kts | 197° |